createdAt,value
2022-08-17T00:00:43.625Z,15.93
2022-08-17T00:03:00.771Z,14.50
2022-08-17T00:05:04.362Z,14.15
2022-08-17T00:07:06.025Z,12.40
2022-08-17T00:09:07.555Z,12.75
2022-08-17T00:11:10.943Z,12.82
2022-08-17T00:13:17.770Z,12.75
2022-08-17T00:15:20.647Z,14.18
2022-08-17T00:17:22.178Z,14.07
2022-08-17T00:19:24.456Z,13.00
2022-08-17T00:21:26.605Z,12.30
2022-08-17T00:23:49.539Z,12.43
2022-08-17T00:25:51.943Z,12.85
2022-08-17T00:27:53.398Z,11.27
2022-08-17T00:29:55.440Z,12.68
2022-08-17T00:31:56.936Z,15.32
2022-08-17T00:33:59.376Z,13.75
2022-08-17T00:36:01.427Z,15.07
2022-08-17T00:38:04.994Z,15.23
2022-08-17T00:40:09.230Z,15.23
2022-08-17T00:42:18.444Z,15.18
2022-08-17T00:44:20.161Z,15.88
2022-08-17T00:46:28.635Z,17.15
2022-08-17T00:48:30.879Z,15.82
2022-08-17T00:50:32.524Z,14.65
2022-08-17T00:52:36.031Z,16.42
2022-08-17T00:54:41.745Z,17.13
2022-08-17T00:56:48.797Z,17.33
2022-08-17T00:58:51.899Z,16.88
2022-08-17T01:00:53.469Z,17.07
2022-08-17T01:02:59.021Z,17.65
2022-08-17T01:05:00.627Z,17.40
2022-08-17T01:07:03.515Z,18.42
2022-08-17T01:09:05.439Z,17.73
2022-08-17T01:11:07.750Z,16.23
2022-08-17T01:13:09.326Z,17.20
2022-08-17T01:15:11.015Z,17.77
2022-08-17T01:17:13.182Z,18.30
2022-08-17T01:19:16.912Z,16.73
2022-08-17T01:21:27.861Z,20.05
2022-08-17T01:23:29.944Z,16.63
2022-08-17T01:25:31.957Z,17.83
2022-08-17T01:27:34.103Z,18.52
2022-08-17T01:29:38.970Z,16.55
2022-08-17T01:31:45.107Z,18.95
2022-08-17T01:33:47.006Z,18.63
2022-08-17T01:35:48.599Z,17.38
2022-08-17T01:37:50.320Z,19.15
2022-08-17T01:39:53.946Z,18.95
2022-08-17T01:41:58.779Z,20.38
2022-08-17T01:44:05.550Z,19.27
2022-08-17T01:46:07.349Z,18.77
2022-08-17T01:48:09.284Z,19.92
2022-08-17T01:50:16.223Z,18.95
2022-08-17T01:52:20.176Z,18.65
2022-08-17T01:56:26.892Z,19.90
2022-08-17T02:00:46.871Z,18.17
2022-08-17T02:02:55.617Z,19.38
2022-08-17T02:04:59.137Z,19.77
2022-08-17T02:07:02.781Z,18.65
2022-08-17T02:09:07.583Z,18.73
2022-08-17T02:11:20.003Z,19.17
2022-08-17T02:13:21.977Z,19.17
2022-08-17T02:15:23.576Z,19.23
2022-08-17T02:17:25.221Z,16.70
2022-08-17T02:19:26.814Z,18.40
2022-08-17T02:21:28.882Z,18.15
2022-08-17T02:23:31.160Z,20.55
2022-08-17T02:25:33.654Z,21.80
2022-08-17T02:27:36.507Z,22.80
2022-08-17T02:29:38.294Z,22.73
2022-08-17T02:31:39.780Z,22.48
2022-08-17T02:33:42.900Z,20.88
2022-08-17T02:35:45.152Z,23.38
2022-08-17T02:37:46.687Z,20.65
2022-08-17T02:39:53.404Z,24.58
2022-08-17T02:42:02.289Z,24.73
2022-08-17T02:44:04.347Z,25.90
2022-08-17T02:46:05.783Z,26.85
2022-08-17T02:48:07.583Z,25.60
2022-08-17T02:50:10.220Z,26.30
2022-08-17T02:52:11.716Z,23.63
2022-08-17T02:54:40.567Z,23.38
2022-08-17T02:56:34.759Z,24.20
2022-08-17T02:58:36.357Z,24.23
2022-08-17T03:00:44.210Z,24.98
2022-08-17T03:02:46.002Z,25.73
2022-08-17T03:04:47.521Z,23.88
2022-08-17T03:06:49.029Z,22.73
2022-08-17T03:08:50.911Z,25.00
2022-08-17T03:10:52.690Z,25.10
2022-08-17T03:12:54.372Z,25.70
2022-08-17T03:14:55.922Z,23.20
2022-08-17T03:16:57.634Z,23.05
2022-08-17T03:18:59.458Z,24.95
2022-08-17T03:21:04.173Z,25.77
2022-08-17T03:23:05.972Z,35.90
2022-08-17T03:25:10.782Z,34.47
2022-08-17T03:27:12.470Z,33.17
2022-08-17T03:29:18.902Z,35.40
2022-08-17T03:31:21.796Z,36.38
2022-08-17T03:33:23.379Z,40.17
2022-08-17T03:35:26.514Z,40.80
2022-08-17T03:37:28.359Z,40.80
2022-08-17T03:39:29.947Z,42.38
2022-08-17T03:41:31.558Z,41.60
2022-08-17T03:43:33.646Z,44.55
2022-08-17T03:45:54.157Z,40.70
2022-08-17T03:48:14.664Z,45.42
2022-08-17T03:50:35.463Z,46.13
2022-08-17T03:52:55.548Z,46.70
2022-08-17T03:55:15.837Z,45.33
2022-08-17T03:57:17.344Z,46.25
2022-08-17T03:59:22.467Z,43.80
2022-08-17T04:01:24.639Z,47.30
2022-08-17T04:03:26.251Z,46.67
2022-08-17T04:05:27.785Z,48.72
2022-08-17T04:07:31.898Z,48.47
2022-08-17T04:09:33.519Z,48.13
2022-08-17T04:11:35.480Z,48.38
2022-08-17T04:13:37.742Z,47.75
2022-08-17T04:15:39.429Z,45.28
2022-08-17T04:17:41.029Z,46.67
2022-08-17T04:19:42.760Z,50.80
2022-08-17T04:21:44.308Z,45.70
2022-08-17T04:23:46.134Z,49.05
2022-08-17T04:25:49.283Z,51.10
2022-08-17T04:27:51.214Z,51.85
2022-08-17T04:29:55.651Z,53.40
2022-08-17T04:31:58.205Z,58.22
2022-08-17T04:33:59.923Z,58.30
2022-08-17T04:36:02.105Z,62.83
2022-08-17T04:38:03.901Z,59.10
2022-08-17T04:40:25.896Z,61.72
2022-08-17T04:42:29.315Z,61.28
2022-08-17T04:44:37.529Z,58.40
2022-08-17T04:46:39.634Z,61.33
2022-08-17T04:48:42.710Z,64.25
2022-08-17T04:50:51.867Z,67.83
2022-08-17T04:52:53.733Z,66.32
2022-08-17T04:55:02.257Z,65.53
2022-08-17T04:57:10.367Z,63.15
2022-08-17T04:59:26.582Z,60.95
2022-08-17T05:01:35.760Z,59.78
2022-08-17T05:03:44.322Z,66.05
2022-08-17T05:05:55.748Z,66.15
2022-08-17T05:08:05.407Z,61.28
2022-08-17T05:10:13.979Z,64.45
2022-08-17T05:12:21.757Z,63.72
2022-08-17T05:14:33.194Z,66.28
2022-08-17T05:16:42.465Z,62.58
2022-08-17T05:18:45.124Z,69.00
2022-08-17T05:20:46.739Z,66.38
2022-08-17T05:22:52.063Z,66.28
2022-08-17T05:24:55.592Z,63.83
2022-08-17T05:27:00.353Z,63.80
2022-08-17T05:29:07.199Z,59.38
2022-08-17T05:31:09.269Z,58.90
2022-08-17T05:33:12.600Z,56.90
2022-08-17T05:35:14.984Z,58.00
2022-08-17T05:37:16.551Z,59.72
2022-08-17T05:39:18.348Z,58.03
2022-08-17T05:41:20.006Z,55.92
2022-08-17T05:43:25.901Z,54.88
2022-08-17T05:45:54.937Z,53.35
2022-08-17T05:47:49.089Z,52.13
2022-08-17T05:49:50.677Z,53.53
2022-08-17T05:52:01.396Z,51.72
2022-08-17T05:54:19.552Z,53.22
2022-08-17T05:56:38.888Z,50.08
2022-08-17T05:58:43.137Z,46.85
2022-08-17T06:00:56.045Z,48.20
2022-08-17T06:03:04.999Z,48.55
2022-08-17T06:05:14.428Z,47.30
2022-08-17T06:07:15.955Z,48.33
2022-08-17T06:09:31.498Z,50.63
2022-08-17T06:11:53.369Z,47.22
2022-08-17T06:14:07.790Z,49.13
2022-08-17T06:16:33.594Z,45.83
2022-08-17T06:18:39.091Z,45.35
2022-08-17T06:20:47.367Z,43.35
2022-08-17T06:22:55.987Z,44.08
2022-08-17T06:25:01.191Z,41.30
2022-08-17T06:27:13.615Z,43.85
2022-08-17T06:29:18.784Z,43.35
2022-08-17T06:31:29.153Z,45.22
2022-08-17T06:33:34.242Z,42.00
2022-08-17T06:35:44.600Z,41.72
2022-08-17T06:38:01.281Z,44.08
2022-08-17T06:40:03.778Z,41.15
2022-08-17T06:42:54.861Z,42.60
2022-08-17T06:44:50.750Z,40.35
2022-08-17T06:46:56.386Z,40.55
2022-08-17T06:49:00.922Z,39.15
2022-08-17T06:51:07.346Z,37.85
2022-08-17T06:53:31.657Z,38.35
2022-08-17T06:55:44.162Z,33.05
2022-08-17T06:57:49.670Z,35.88
2022-08-17T07:00:07.935Z,36.55
2022-08-17T07:02:15.448Z,35.60
2022-08-17T07:04:21.782Z,35.50
2022-08-17T07:06:49.541Z,35.50
2022-08-17T07:08:54.072Z,34.47
2022-08-17T07:10:57.454Z,32.17
2022-08-17T07:13:07.875Z,32.30
2022-08-17T07:15:09.735Z,33.38
2022-08-17T07:17:13.950Z,29.85
2022-08-17T07:19:16.862Z,31.02
2022-08-17T07:21:33.612Z,31.87
2022-08-17T07:23:40.153Z,31.42
2022-08-17T07:25:41.713Z,32.45
2022-08-17T07:27:45.863Z,31.60
2022-08-17T07:29:53.706Z,30.58
2022-08-17T07:31:55.331Z,27.50
2022-08-17T07:34:08.539Z,23.75
2022-08-17T07:36:29.149Z,23.90
2022-08-17T07:38:32.517Z,22.63
2022-08-17T07:40:38.233Z,23.50
2022-08-17T07:42:44.916Z,21.95
2022-08-17T07:44:52.530Z,23.17
2022-08-17T07:47:12.828Z,21.38
2022-08-17T07:49:14.350Z,23.77
2022-08-17T07:51:21.199Z,24.10
2022-08-17T07:53:24.572Z,24.20
2022-08-17T07:55:28.062Z,23.83
2022-08-17T07:57:32.212Z,24.40
2022-08-17T07:59:40.675Z,22.90
2022-08-17T08:01:56.779Z,25.33
2022-08-17T08:04:07.411Z,22.70
2022-08-17T08:06:22.913Z,23.63
2022-08-17T08:08:32.136Z,25.80
2022-08-17T08:10:45.507Z,24.30
2022-08-17T08:12:59.182Z,25.42
2022-08-17T08:15:14.628Z,27.02
2022-08-17T08:17:24.050Z,26.20
2022-08-17T08:19:28.684Z,27.98
2022-08-17T08:21:47.853Z,28.33
2022-08-17T08:24:01.960Z,30.20
2022-08-17T08:26:23.047Z,29.63
2022-08-17T08:28:51.266Z,30.33
2022-08-17T08:30:55.168Z,32.03
2022-08-17T08:32:57.543Z,30.85
2022-08-17T08:35:22.627Z,34.38
2022-08-17T08:37:36.672Z,34.50
2022-08-17T08:39:41.353Z,35.55
2022-08-17T08:41:45.697Z,36.83
2022-08-17T08:43:55.313Z,33.58
2022-08-17T08:46:05.461Z,34.47
2022-08-17T08:48:53.899Z,34.45
2022-08-17T08:54:26.557Z,31.65
2022-08-17T08:56:59.013Z,30.75
2022-08-17T08:59:18.282Z,29.52
2022-08-17T09:01:40.231Z,31.13
2022-08-17T09:04:12.034Z,33.97
2022-08-17T09:06:59.835Z,31.48
2022-08-17T09:09:07.301Z,32.20
2022-08-17T09:11:27.079Z,32.47
2022-08-17T09:13:34.428Z,34.53
2022-08-17T09:15:47.455Z,35.38
2022-08-17T09:18:21.402Z,33.00
2022-08-17T09:20:27.411Z,34.13
2022-08-17T09:22:35.819Z,35.30
2022-08-17T09:24:41.756Z,32.50
2022-08-17T09:26:54.437Z,31.52
2022-08-17T09:29:02.216Z,30.80
2022-08-17T09:31:07.843Z,30.58
2022-08-17T09:33:10.228Z,32.72
2022-08-17T09:35:16.292Z,32.72
2022-08-17T09:37:40.179Z,30.52
2022-08-17T09:39:41.819Z,31.88
2022-08-17T09:41:49.469Z,32.00
2022-08-17T09:44:04.961Z,31.25
2022-08-17T09:46:26.829Z,30.10
2022-08-17T09:49:07.267Z,31.17
2022-08-17T09:51:13.818Z,30.38
2022-08-17T09:53:15.427Z,30.75
2022-08-17T09:55:16.918Z,31.20
2022-08-17T09:57:32.485Z,30.10
2022-08-17T09:59:54.551Z,31.45
2022-08-17T10:02:05.261Z,29.35
2022-08-17T10:04:20.751Z,31.73
2022-08-17T10:06:25.899Z,31.50
2022-08-17T10:08:44.052Z,30.63
2022-08-17T10:10:56.610Z,30.25
2022-08-17T10:13:10.628Z,30.98
2022-08-17T10:15:18.894Z,33.22
2022-08-17T10:17:36.321Z,30.52
2022-08-17T10:19:39.423Z,31.00
2022-08-17T10:22:32.453Z,31.40
2022-08-17T10:25:20.957Z,28.90
2022-08-17T10:27:15.851Z,29.27
2022-08-17T10:29:20.746Z,30.38
2022-08-17T10:31:35.174Z,27.08
2022-08-17T10:33:46.913Z,27.50
2022-08-17T10:35:52.440Z,28.52
2022-08-17T10:38:01.708Z,28.55
2022-08-17T10:40:24.732Z,27.75
2022-08-17T10:44:38.575Z,24.75
2022-08-17T10:47:01.475Z,25.77
2022-08-17T10:49:18.026Z,25.17
2022-08-17T10:51:37.936Z,23.77
2022-08-17T10:53:43.397Z,24.75
2022-08-17T10:56:05.777Z,25.85
2022-08-17T10:58:20.932Z,25.17
2022-08-17T11:00:27.857Z,24.30
2022-08-17T11:02:31.510Z,24.45
2022-08-17T11:04:52.003Z,26.88
2022-08-17T11:07:20.732Z,23.20
2022-08-17T11:09:30.329Z,24.10
2022-08-17T11:11:49.035Z,23.38
2022-08-17T11:14:15.373Z,22.95
2022-08-17T11:16:33.871Z,24.52
2022-08-17T11:18:47.268Z,21.92
2022-08-17T11:21:10.303Z,22.00
2022-08-17T11:23:28.250Z,23.60
2022-08-17T11:25:45.285Z,20.77
2022-08-17T11:27:54.004Z,20.42
2022-08-17T11:30:02.419Z,18.40
2022-08-17T11:32:11.577Z,19.77
2022-08-17T11:34:13.377Z,21.70
2022-08-17T11:36:33.505Z,19.20
2022-08-17T11:38:46.311Z,19.13
2022-08-17T11:40:48.139Z,18.80
2022-08-17T11:42:49.800Z,18.02
2022-08-17T11:45:03.131Z,18.83
2022-08-17T11:47:28.076Z,17.27
2022-08-17T11:50:12.887Z,18.35
2022-08-17T11:52:34.499Z,17.95
2022-08-17T11:54:39.259Z,19.88
2022-08-17T11:56:44.032Z,20.35
2022-08-17T11:58:45.663Z,18.70
2022-08-17T12:00:49.934Z,20.25
2022-08-17T12:03:11.482Z,18.60
2022-08-17T12:05:25.256Z,18.13
2022-08-17T12:07:26.889Z,18.52
2022-08-17T12:09:34.499Z,17.08
2022-08-17T12:12:12.465Z,14.68
2022-08-17T12:14:45.039Z,16.88
2022-08-17T12:17:11.447Z,16.30
2022-08-17T12:19:23.738Z,14.10
2022-08-17T12:21:37.431Z,14.30
2022-08-17T12:23:47.329Z,16.08
2022-08-17T12:26:05.391Z,16.55
2022-08-17T12:28:26.059Z,14.90
2022-08-17T12:30:27.985Z,15.63
2022-08-17T12:32:33.235Z,14.68
2022-08-17T12:34:36.990Z,16.75
2022-08-17T12:36:40.098Z,15.90
2022-08-17T12:38:48.911Z,17.60
2022-08-17T12:40:54.438Z,18.05
2022-08-17T12:43:07.631Z,19.10
2022-08-17T12:45:23.368Z,17.98
2022-08-17T12:47:25.651Z,17.33
2022-08-17T12:49:32.757Z,17.25
2022-08-17T12:51:34.363Z,17.60
2022-08-17T12:53:35.889Z,18.63
2022-08-17T12:55:38.795Z,26.58
2022-08-17T12:57:42.383Z,37.58
2022-08-17T12:59:46.108Z,78.00
2022-08-17T13:03:53.530Z,59.47
2022-08-17T13:06:06.473Z,55.03
2022-08-17T13:08:15.726Z,54.53
2022-08-17T13:10:31.589Z,60.90
2022-08-17T13:12:35.116Z,90.13
2022-08-17T13:14:36.800Z,111.40
2022-08-17T13:16:38.397Z,78.93
2022-08-17T13:18:39.966Z,63.97
2022-08-17T13:20:53.342Z,72.13
2022-08-17T13:22:58.079Z,87.43
2022-08-17T13:25:05.458Z,89.70
2022-08-17T13:27:12.332Z,94.07
2022-08-17T13:29:20.974Z,53.15
2022-08-17T13:31:28.359Z,65.43
2022-08-17T13:33:43.589Z,76.85
2022-08-17T13:35:50.508Z,79.55
2022-08-17T13:37:58.269Z,90.25
2022-08-17T13:40:08.849Z,93.85
2022-08-17T13:42:30.736Z,100.30
2022-08-17T13:44:39.505Z,85.03
2022-08-17T13:46:50.465Z,81.95
2022-08-17T13:48:58.736Z,95.45
2022-08-17T13:51:00.473Z,79.75
2022-08-17T13:53:02.291Z,65.50
2022-08-17T13:55:09.184Z,76.72
2022-08-17T13:57:23.696Z,73.00
2022-08-17T13:59:54.262Z,79.03
2022-08-17T14:01:57.510Z,78.00
2022-08-17T14:04:00.109Z,98.45
2022-08-17T14:06:04.853Z,92.45
2022-08-17T14:08:07.119Z,85.47
2022-08-17T14:10:18.280Z,85.32
2022-08-17T14:12:27.078Z,90.50
2022-08-17T14:14:31.249Z,81.70
2022-08-17T14:16:36.061Z,84.43
2022-08-17T14:18:55.935Z,69.25
2022-08-17T14:21:00.514Z,65.13
2022-08-17T14:23:03.572Z,66.10
2022-08-17T14:25:11.951Z,68.03
2022-08-17T14:27:19.511Z,61.35
2022-08-17T14:29:27.278Z,55.70
2022-08-17T14:31:36.838Z,59.50
2022-08-17T14:33:41.554Z,57.05
2022-08-17T14:35:43.572Z,56.00
2022-08-17T14:37:45.829Z,52.28
2022-08-17T14:39:47.497Z,53.83
2022-08-17T14:41:49.219Z,45.97
2022-08-17T14:43:52.982Z,45.20
2022-08-17T14:47:56.308Z,49.92
2022-08-17T14:49:59.280Z,44.38
2022-08-17T14:52:01.449Z,47.28
2022-08-17T14:54:03.287Z,49.92
2022-08-17T14:56:04.859Z,47.83
2022-08-17T14:58:06.935Z,49.60
2022-08-17T15:00:08.986Z,52.78
2022-08-17T15:02:10.855Z,38.13
2022-08-17T15:04:18.588Z,37.65
2022-08-17T15:06:21.247Z,35.53
2022-08-17T15:08:22.962Z,36.25
2022-08-17T15:10:25.837Z,28.10
2022-08-17T15:12:32.055Z,30.33
2022-08-17T15:14:35.450Z,29.60
2022-08-17T15:16:37.341Z,29.88
2022-08-17T15:18:39.260Z,30.40
2022-08-17T15:20:40.928Z,29.30
2022-08-17T15:22:43.342Z,26.10
2022-08-17T15:24:44.883Z,21.45
2022-08-17T15:26:47.744Z,34.50
2022-08-17T15:28:53.528Z,27.23
2022-08-17T15:30:56.327Z,31.90
2022-08-17T15:32:59.031Z,28.88
2022-08-17T15:35:03.046Z,25.35
2022-08-17T15:37:04.752Z,26.23
2022-08-17T15:39:06.509Z,20.10
2022-08-17T15:41:15.133Z,26.40
2022-08-17T15:43:21.066Z,16.08
2022-08-17T15:45:26.424Z,19.70
2022-08-17T15:47:28.033Z,17.15
2022-08-17T15:49:29.586Z,20.88
2022-08-17T15:51:34.839Z,18.70
2022-08-17T15:53:36.563Z,15.15
2022-08-17T15:55:38.654Z,14.57
2022-08-17T15:57:40.641Z,14.75
2022-08-17T15:59:43.396Z,13.63
2022-08-17T16:03:14.082Z,14.93
2022-08-17T16:04:30.167Z,12.52
2022-08-17T16:06:29.667Z,9.55
2022-08-17T16:08:31.255Z,10.38
2022-08-17T16:10:34.762Z,10.32
2022-08-17T16:12:37.339Z,12.30
2022-08-17T16:14:38.966Z,10.40
2022-08-17T16:16:41.778Z,8.95
2022-08-17T16:18:43.417Z,7.80
2022-08-17T16:20:44.937Z,7.55
2022-08-17T16:22:46.546Z,10.18
2022-08-17T16:24:56.931Z,8.55
2022-08-17T16:26:59.520Z,8.40
2022-08-17T16:29:03.047Z,7.75
2022-08-17T16:31:05.778Z,9.05
2022-08-17T16:33:11.388Z,7.45
2022-08-17T16:35:17.429Z,6.72
2022-08-17T16:37:19.219Z,6.28
2022-08-17T16:39:20.754Z,6.20
2022-08-17T16:41:44.349Z,6.05
2022-08-17T16:43:47.123Z,7.03
2022-08-17T16:45:52.138Z,6.38
2022-08-17T16:47:54.489Z,5.75
2022-08-17T16:49:56.285Z,5.35
2022-08-17T16:52:01.699Z,6.75
2022-08-17T16:54:03.782Z,6.00
2022-08-17T16:56:07.227Z,6.10
2022-08-17T16:58:08.968Z,6.70
2022-08-17T17:00:12.882Z,4.80
2022-08-17T17:02:14.707Z,4.53
2022-08-17T17:04:17.255Z,5.57
2022-08-17T17:06:25.129Z,4.95
2022-08-17T17:08:33.003Z,5.28
2022-08-17T17:10:39.468Z,4.63
2022-08-17T17:13:01.516Z,4.80
2022-08-17T17:15:03.030Z,4.32
2022-08-17T17:17:14.142Z,5.05
2022-08-17T17:19:48.499Z,4.65
2022-08-17T17:21:58.436Z,4.00
2022-08-17T17:24:04.672Z,4.18
2022-08-17T17:26:09.849Z,4.63
2022-08-17T17:28:15.265Z,4.72
2022-08-17T17:30:23.460Z,4.45
2022-08-17T17:32:47.151Z,4.22
2022-08-17T17:34:52.159Z,4.07
2022-08-17T17:37:00.751Z,3.90
2022-08-17T17:39:07.933Z,3.92
2022-08-17T17:41:26.166Z,3.95
2022-08-17T17:43:38.919Z,3.90
2022-08-17T17:45:46.132Z,4.00
2022-08-17T17:47:47.895Z,3.63
2022-08-17T17:49:49.691Z,4.20
2022-08-17T17:52:11.071Z,4.53
2022-08-17T17:54:32.467Z,4.75
2022-08-17T17:56:44.855Z,4.43
2022-08-17T17:59:12.569Z,4.63
2022-08-17T18:01:14.601Z,5.45
2022-08-17T18:03:39.938Z,3.97
2022-08-17T18:06:00.633Z,5.45
2022-08-17T18:08:11.735Z,4.38
2022-08-17T18:10:29.634Z,4.15
2022-08-17T18:12:44.293Z,3.80
2022-08-17T18:14:45.722Z,4.22
2022-08-17T18:16:53.594Z,5.03
2022-08-17T18:18:57.730Z,4.25
2022-08-17T18:23:00.602Z,3.95
2022-08-17T18:25:22.377Z,4.55
2022-08-17T18:27:23.934Z,4.60
2022-08-17T18:29:31.218Z,3.55
2022-08-17T18:31:32.946Z,3.95
2022-08-17T18:33:34.899Z,3.78
2022-08-17T18:35:36.513Z,5.00
2022-08-17T18:37:43.232Z,3.58
2022-08-17T18:39:44.827Z,4.50
2022-08-17T18:41:51.210Z,4.43
2022-08-17T18:44:03.435Z,4.80
2022-08-17T18:46:28.282Z,4.57
2022-08-17T18:48:32.993Z,3.85
2022-08-17T18:50:41.172Z,4.60
2022-08-17T18:52:43.455Z,4.65
2022-08-17T18:55:03.358Z,4.25
2022-08-17T18:57:06.441Z,4.32
2022-08-17T18:59:11.063Z,4.70
2022-08-17T19:01:21.695Z,4.55
2022-08-17T19:03:43.388Z,3.92
2022-08-17T19:05:45.061Z,4.28
2022-08-17T19:07:48.032Z,4.13
2022-08-17T19:10:08.025Z,4.27
2022-08-17T19:12:13.472Z,3.33
2022-08-17T19:14:16.689Z,3.08
2022-08-17T19:16:27.048Z,4.45
2022-08-17T19:18:31.510Z,3.50
2022-08-17T19:20:38.791Z,3.35
2022-08-17T19:22:49.819Z,3.10
2022-08-17T19:24:56.306Z,3.28
2022-08-17T19:27:11.232Z,3.65
2022-08-17T19:29:22.415Z,3.72
2022-08-17T19:31:27.327Z,4.00
2022-08-17T19:33:29.467Z,4.85
2022-08-17T19:35:54.060Z,4.80
2022-08-17T19:38:13.380Z,3.88
2022-08-17T19:40:41.831Z,3.80
2022-08-17T19:42:47.751Z,3.90
2022-08-17T19:44:49.272Z,3.83
2022-08-17T19:46:56.156Z,4.25
2022-08-17T19:49:22.679Z,4.40
2022-08-17T19:51:47.386Z,4.07
2022-08-17T19:54:05.829Z,4.65
2022-08-17T19:56:26.925Z,4.65
2022-08-17T19:58:49.583Z,4.93
2022-08-17T20:00:54.281Z,4.60
2022-08-17T20:03:16.441Z,7.20
2022-08-17T20:05:27.113Z,5.93
2022-08-17T20:07:43.464Z,4.55
2022-08-17T20:09:51.640Z,5.65
2022-08-17T20:11:58.546Z,4.82
2022-08-17T20:14:05.514Z,4.32
2022-08-17T20:16:07.798Z,4.55
2022-08-17T20:18:26.892Z,4.70
2022-08-17T20:20:48.142Z,4.47
2022-08-17T20:22:53.853Z,5.07
2022-08-17T20:25:17.109Z,6.15
2022-08-17T20:27:51.973Z,5.68
2022-08-17T20:29:58.501Z,5.00
2022-08-17T20:32:08.377Z,4.70
2022-08-17T20:34:37.298Z,4.45
2022-08-17T20:37:02.664Z,5.25
2022-08-17T20:39:29.231Z,5.55
2022-08-17T20:41:53.728Z,5.38
2022-08-17T20:44:04.085Z,5.40
2022-08-17T20:46:16.239Z,4.07
2022-08-17T20:48:37.048Z,4.85
2022-08-17T20:50:43.566Z,5.10
2022-08-17T20:52:48.182Z,4.55
2022-08-17T20:54:51.217Z,4.80
2022-08-17T20:56:56.166Z,5.50
2022-08-17T20:59:00.681Z,5.22
2022-08-17T21:01:12.872Z,5.03
2022-08-17T21:03:23.540Z,4.82
2022-08-17T21:05:45.491Z,4.47
2022-08-17T21:07:55.985Z,5.38
2022-08-17T21:12:04.556Z,4.50
2022-08-17T21:14:25.510Z,4.63
2022-08-17T21:16:43.872Z,4.50
2022-08-17T21:18:50.407Z,4.88
2022-08-17T21:21:16.886Z,4.68
2022-08-17T21:23:37.899Z,5.30
2022-08-17T21:25:49.111Z,5.78
2022-08-17T21:27:50.722Z,3.92
2022-08-17T21:30:01.515Z,5.40
2022-08-17T21:34:28.934Z,4.85
2022-08-17T21:36:31.444Z,5.68
2022-08-17T21:38:57.774Z,4.72
2022-08-17T21:40:59.502Z,4.65
2022-08-17T21:43:08.275Z,4.55
2022-08-17T21:45:11.558Z,5.18
2022-08-17T21:47:21.163Z,4.93
2022-08-17T21:49:25.527Z,5.97
2022-08-17T21:51:28.741Z,5.03
2022-08-17T21:53:44.469Z,5.60
2022-08-17T21:55:48.240Z,5.78
2022-08-17T21:58:08.602Z,5.93
2022-08-17T22:00:17.331Z,5.68
2022-08-17T22:02:23.964Z,6.45
2022-08-17T22:04:32.716Z,5.07
2022-08-17T22:06:34.275Z,5.65
2022-08-17T22:08:36.981Z,4.85
2022-08-17T22:10:38.575Z,6.88
2022-08-17T22:12:42.629Z,6.18
2022-08-17T22:15:05.947Z,5.60
2022-08-17T22:17:07.465Z,5.45
2022-08-17T22:19:09.711Z,6.18
2022-08-17T22:21:11.288Z,6.90
2022-08-17T22:23:32.423Z,5.85
2022-08-17T22:25:37.229Z,6.15
2022-08-17T22:27:55.851Z,5.88
2022-08-17T22:29:59.389Z,6.88
2022-08-17T22:32:01.012Z,5.88
2022-08-17T22:34:02.506Z,6.45
2022-08-17T22:36:09.834Z,6.90
2022-08-17T22:38:18.348Z,7.45
2022-08-17T22:40:31.100Z,6.47
2022-08-17T22:42:33.719Z,6.38
2022-08-17T22:44:37.537Z,6.80
2022-08-17T22:46:41.136Z,6.00
2022-08-17T22:48:50.820Z,7.30
2022-08-17T22:51:02.354Z,8.65
2022-08-17T22:53:30.206Z,7.28
2022-08-17T22:55:52.188Z,6.63
2022-08-17T22:58:12.507Z,7.05
2022-08-17T23:00:32.421Z,7.70
2022-08-17T23:02:34.711Z,8.57
2022-08-17T23:04:37.670Z,6.78
2022-08-17T23:06:42.290Z,7.72
2022-08-17T23:08:50.213Z,7.60
2022-08-17T23:10:51.799Z,7.70
2022-08-17T23:12:53.360Z,8.77
2022-08-17T23:15:00.683Z,9.75
2022-08-17T23:17:02.274Z,8.52
2022-08-17T23:19:03.832Z,8.38
2022-08-17T23:21:07.347Z,7.60
2022-08-17T23:23:10.998Z,8.48
2022-08-17T23:25:15.106Z,9.13
2022-08-17T23:27:17.636Z,9.98
2022-08-17T23:29:27.846Z,9.77
2022-08-17T23:31:41.534Z,9.50
2022-08-17T23:34:03.621Z,8.20
2022-08-17T23:36:24.002Z,7.75
2022-08-17T23:38:40.593Z,8.20
2022-08-17T23:41:07.101Z,9.70
2022-08-17T23:43:28.123Z,8.85
2022-08-17T23:45:47.961Z,9.18
2022-08-17T23:48:10.648Z,9.63
2022-08-17T23:50:30.030Z,9.35
2022-08-17T23:52:37.794Z,9.85
2022-08-17T23:54:43.889Z,10.45
2022-08-17T23:56:46.562Z,10.05
2022-08-17T23:58:48.363Z,10.23
